sensor_id;sensor_type;location;lat;lon;timestamp;P1;durP1;ratioP1;P2;durP2;ratioP2
45208;SDS011;30951;43.994;26.260;2023-05-06T00:00:38;11.95;;;8.25;;
45208;SDS011;30951;43.994;26.260;2023-05-06T00:03:03;12.98;;;8.40;;
45208;SDS011;30951;43.994;26.260;2023-05-06T00:05:29;15.15;;;7.88;;
45208;SDS011;30951;43.994;26.260;2023-05-06T00:07:54;11.98;;;8.45;;
45208;SDS011;30951;43.994;26.260;2023-05-06T00:10:20;13.60;;;7.90;;
45208;SDS011;30951;43.994;26.260;2023-05-06T00:12:45;15.50;;;8.65;;
45208;SDS011;30951;43.994;26.260;2023-05-06T00:15:11;10.27;;;7.85;;
45208;SDS011;30951;43.994;26.260;2023-05-06T00:17:36;11.90;;;8.20;;
45208;SDS011;30951;43.994;26.260;2023-05-06T00:20:02;11.55;;;7.97;;
45208;SDS011;30951;43.994;26.260;2023-05-06T00:22:28;11.50;;;7.55;;
45208;SDS011;30951;43.994;26.260;2023-05-06T00:24:53;13.98;;;8.32;;
45208;SDS011;30951;43.994;26.260;2023-05-06T00:27:19;12.85;;;8.63;;
45208;SDS011;30951;43.994;26.260;2023-05-06T00:29:44;14.90;;;8.95;;
45208;SDS011;30951;43.994;26.260;2023-05-06T00:32:10;10.48;;;7.68;;
45208;SDS011;30951;43.994;26.260;2023-05-06T00:34:35;13.30;;;8.75;;
45208;SDS011;30951;43.994;26.260;2023-05-06T00:37:01;11.38;;;8.65;;
45208;SDS011;30951;43.994;26.260;2023-05-06T00:39:28;11.55;;;9.07;;
45208;SDS011;30951;43.994;26.260;2023-05-06T00:41:57;13.93;;;8.57;;
45208;SDS011;30951;43.994;26.260;2023-05-06T00:44:23;14.38;;;8.93;;
45208;SDS011;30951;43.994;26.260;2023-05-06T00:46:49;16.60;;;9.02;;
45208;SDS011;30951;43.994;26.260;2023-05-06T00:49:15;14.70;;;8.88;;
45208;SDS011;30951;43.994;26.260;2023-05-06T00:51:40;13.55;;;9.50;;
45208;SDS011;30951;43.994;26.260;2023-05-06T00:54:06;12.02;;;8.85;;
45208;SDS011;30951;43.994;26.260;2023-05-06T00:56:31;23.38;;;9.80;;
45208;SDS011;30951;43.994;26.260;2023-05-06T00:58:57;11.85;;;8.73;;
45208;SDS011;30951;43.994;26.260;2023-05-06T01:01:22;12.40;;;8.82;;
45208;SDS011;30951;43.994;26.260;2023-05-06T01:03:48;14.27;;;8.80;;
45208;SDS011;30951;43.994;26.260;2023-05-06T01:09:05;13.60;;;9.37;;
45208;SDS011;30951;43.994;26.260;2023-05-06T01:11:44;13.52;;;9.65;;
45208;SDS011;30951;43.994;26.260;2023-05-06T01:14:21;16.70;;;10.27;;
45208;SDS011;30951;43.994;26.260;2023-05-06T01:16:58;15.00;;;9.65;;
45208;SDS011;30951;43.994;26.260;2023-05-06T01:21:59;14.55;;;9.40;;
45208;SDS011;30951;43.994;26.260;2023-05-06T01:24:35;12.70;;;9.00;;
45208;SDS011;30951;43.994;26.260;2023-05-06T01:27:04;15.40;;;10.23;;
45208;SDS011;30951;43.994;26.260;2023-05-06T01:29:30;14.90;;;10.10;;
45208;SDS011;30951;43.994;26.260;2023-05-06T01:31:57;17.20;;;10.35;;
45208;SDS011;30951;43.994;26.260;2023-05-06T01:34:40;17.75;;;10.10;;
45208;SDS011;30951;43.994;26.260;2023-05-06T01:37:13;18.35;;;9.18;;
45208;SDS011;30951;43.994;26.260;2023-05-06T01:39:45;16.02;;;10.82;;
45208;SDS011;30951;43.994;26.260;2023-05-06T01:42:12;14.52;;;9.95;;
45208;SDS011;30951;43.994;26.260;2023-05-06T01:44:38;15.43;;;10.20;;
45208;SDS011;30951;43.994;26.260;2023-05-06T01:47:04;17.10;;;10.63;;
45208;SDS011;30951;43.994;26.260;2023-05-06T01:49:30;12.77;;;9.82;;
45208;SDS011;30951;43.994;26.260;2023-05-06T01:51:55;14.20;;;9.48;;
45208;SDS011;30951;43.994;26.260;2023-05-06T01:54:22;16.85;;;9.52;;
45208;SDS011;30951;43.994;26.260;2023-05-06T01:56:47;17.02;;;10.10;;
45208;SDS011;30951;43.994;26.260;2023-05-06T01:59:13;14.07;;;10.15;;
45208;SDS011;30951;43.994;26.260;2023-05-06T02:01:38;17.35;;;10.02;;
45208;SDS011;30951;43.994;26.260;2023-05-06T02:04:04;14.85;;;10.77;;
45208;SDS011;30951;43.994;26.260;2023-05-06T02:06:29;19.05;;;10.60;;
45208;SDS011;30951;43.994;26.260;2023-05-06T02:08:55;17.65;;;10.43;;
45208;SDS011;30951;43.994;26.260;2023-05-06T02:11:21;18.70;;;10.32;;
45208;SDS011;30951;43.994;26.260;2023-05-06T02:13:46;15.00;;;10.38;;
45208;SDS011;30951;43.994;26.260;2023-05-06T02:16:12;15.55;;;9.63;;
45208;SDS011;30951;43.994;26.260;2023-05-06T02:18:37;18.83;;;10.68;;
45208;SDS011;30951;43.994;26.260;2023-05-06T02:21:03;18.30;;;9.52;;
45208;SDS011;30951;43.994;26.260;2023-05-06T02:23:28;12.57;;;9.02;;
45208;SDS011;30951;43.994;26.260;2023-05-06T02:25:54;13.02;;;9.98;;
45208;SDS011;30951;43.994;26.260;2023-05-06T02:28:22;13.95;;;9.25;;
45208;SDS011;30951;43.994;26.260;2023-05-06T02:30:47;11.73;;;8.98;;
45208;SDS011;30951;43.994;26.260;2023-05-06T02:33:13;14.00;;;9.55;;
45208;SDS011;30951;43.994;26.260;2023-05-06T02:35:38;11.30;;;8.45;;
45208;SDS011;30951;43.994;26.260;2023-05-06T02:38:03;14.98;;;8.57;;
45208;SDS011;30951;43.994;26.260;2023-05-06T02:40:29;11.60;;;8.82;;
45208;SDS011;30951;43.994;26.260;2023-05-06T02:42:54;14.82;;;9.80;;
45208;SDS011;30951;43.994;26.260;2023-05-06T02:45:20;14.82;;;8.85;;
45208;SDS011;30951;43.994;26.260;2023-05-06T02:47:45;18.48;;;10.43;;
45208;SDS011;30951;43.994;26.260;2023-05-06T02:50:11;16.92;;;10.02;;
45208;SDS011;30951;43.994;26.260;2023-05-06T02:52:36;14.82;;;9.30;;
45208;SDS011;30951;43.994;26.260;2023-05-06T02:55:02;14.48;;;9.35;;
45208;SDS011;30951;43.994;26.260;2023-05-06T02:57:27;15.55;;;10.15;;
45208;SDS011;30951;43.994;26.260;2023-05-06T02:59:53;12.82;;;10.00;;
45208;SDS011;30951;43.994;26.260;2023-05-06T03:02:18;14.38;;;10.57;;
45208;SDS011;30951;43.994;26.260;2023-05-06T03:04:44;19.08;;;10.25;;
45208;SDS011;30951;43.994;26.260;2023-05-06T03:07:09;14.00;;;9.98;;
45208;SDS011;30951;43.994;26.260;2023-05-06T03:09:35;15.88;;;9.90;;
45208;SDS011;30951;43.994;26.260;2023-05-06T03:12:00;16.05;;;9.82;;
45208;SDS011;30951;43.994;26.260;2023-05-06T03:14:26;14.90;;;10.40;;
45208;SDS011;30951;43.994;26.260;2023-05-06T03:16:52;13.82;;;10.10;;
45208;SDS011;30951;43.994;26.260;2023-05-06T03:19:17;18.40;;;10.38;;
45208;SDS011;30951;43.994;26.260;2023-05-06T03:21:43;14.82;;;10.27;;
45208;SDS011;30951;43.994;26.260;2023-05-06T03:24:08;16.20;;;10.52;;
45208;SDS011;30951;43.994;26.260;2023-05-06T03:26:34;18.08;;;10.88;;
45208;SDS011;30951;43.994;26.260;2023-05-06T03:28:59;15.43;;;10.48;;
45208;SDS011;30951;43.994;26.260;2023-05-06T03:31:25;13.65;;;9.23;;
45208;SDS011;30951;43.994;26.260;2023-05-06T03:33:50;12.80;;;9.13;;
45208;SDS011;30951;43.994;26.260;2023-05-06T03:36:16;15.55;;;9.25;;
45208;SDS011;30951;43.994;26.260;2023-05-06T03:38:41;12.07;;;8.57;;
45208;SDS011;30951;43.994;26.260;2023-05-06T03:41:07;13.25;;;8.38;;
45208;SDS011;30951;43.994;26.260;2023-05-06T03:43:32;14.90;;;8.00;;
45208;SDS011;30951;43.994;26.260;2023-05-06T03:45:58;16.75;;;9.55;;
45208;SDS011;30951;43.994;26.260;2023-05-06T03:48:23;14.35;;;9.48;;
45208;SDS011;30951;43.994;26.260;2023-05-06T03:50:50;14.00;;;8.75;;
45208;SDS011;30951;43.994;26.260;2023-05-06T03:53:15;12.75;;;8.40;;
45208;SDS011;30951;43.994;26.260;2023-05-06T03:55:41;10.43;;;7.78;;
45208;SDS011;30951;43.994;26.260;2023-05-06T03:58:06;11.55;;;7.28;;
45208;SDS011;30951;43.994;26.260;2023-05-06T04:00:32;9.73;;;7.38;;
45208;SDS011;30951;43.994;26.260;2023-05-06T04:02:57;12.95;;;8.50;;
45208;SDS011;30951;43.994;26.260;2023-05-06T04:05:23;9.77;;;6.47;;
45208;SDS011;30951;43.994;26.260;2023-05-06T04:07:48;10.65;;;6.80;;
45208;SDS011;30951;43.994;26.260;2023-05-06T04:10:14;9.02;;;5.85;;
45208;SDS011;30951;43.994;26.260;2023-05-06T04:12:39;9.75;;;6.72;;
45208;SDS011;30951;43.994;26.260;2023-05-06T04:15:05;9.00;;;5.85;;
45208;SDS011;30951;43.994;26.260;2023-05-06T04:17:31;6.47;;;5.35;;
45208;SDS011;30951;43.994;26.260;2023-05-06T04:19:57;8.13;;;5.00;;
45208;SDS011;30951;43.994;26.260;2023-05-06T04:22:22;6.60;;;4.20;;
45208;SDS011;30951;43.994;26.260;2023-05-06T04:24:48;6.38;;;4.63;;
45208;SDS011;30951;43.994;26.260;2023-05-06T04:27:14;12.40;;;4.50;;
45208;SDS011;30951;43.994;26.260;2023-05-06T04:29:41;5.05;;;4.15;;
45208;SDS011;30951;43.994;26.260;2023-05-06T04:32:10;8.82;;;3.95;;
45208;SDS011;30951;43.994;26.260;2023-05-06T04:34:35;6.47;;;3.90;;
45208;SDS011;30951;43.994;26.260;2023-05-06T04:37:01;6.03;;;4.15;;
45208;SDS011;30951;43.994;26.260;2023-05-06T04:39:26;5.00;;;4.50;;
45208;SDS011;30951;43.994;26.260;2023-05-06T04:41:52;6.70;;;3.80;;
45208;SDS011;30951;43.994;26.260;2023-05-06T04:44:19;7.47;;;4.28;;
45208;SDS011;30951;43.994;26.260;2023-05-06T04:46:46;6.32;;;3.63;;
45208;SDS011;30951;43.994;26.260;2023-05-06T04:49:12;5.88;;;4.22;;
45208;SDS011;30951;43.994;26.260;2023-05-06T04:51:38;11.50;;;4.10;;
45208;SDS011;30951;43.994;26.260;2023-05-06T04:54:03;7.30;;;4.55;;
45208;SDS011;30951;43.994;26.260;2023-05-06T04:56:29;4.50;;;4.03;;
45208;SDS011;30951;43.994;26.260;2023-05-06T04:58:54;5.90;;;3.90;;
45208;SDS011;30951;43.994;26.260;2023-05-06T05:01:20;7.85;;;4.97;;
45208;SDS011;30951;43.994;26.260;2023-05-06T05:03:45;5.35;;;4.18;;
45208;SDS011;30951;43.994;26.260;2023-05-06T05:06:11;5.65;;;4.03;;
45208;SDS011;30951;43.994;26.260;2023-05-06T05:08:38;6.07;;;3.75;;
45208;SDS011;30951;43.994;26.260;2023-05-06T05:11:06;8.27;;;4.10;;
45208;SDS011;30951;43.994;26.260;2023-05-06T05:13:32;8.70;;;5.32;;
45208;SDS011;30951;43.994;26.260;2023-05-06T05:15:58;5.82;;;4.85;;
45208;SDS011;30951;43.994;26.260;2023-05-06T05:18:24;10.32;;;4.07;;
45208;SDS011;30951;43.994;26.260;2023-05-06T05:20:49;7.07;;;4.10;;
45208;SDS011;30951;43.994;26.260;2023-05-06T05:23:15;4.70;;;3.83;;
45208;SDS011;30951;43.994;26.260;2023-05-06T05:25:40;6.22;;;3.75;;
45208;SDS011;30951;43.994;26.260;2023-05-06T05:28:06;4.97;;;4.20;;
45208;SDS011;30951;43.994;26.260;2023-05-06T05:30:32;5.38;;;4.00;;
45208;SDS011;30951;43.994;26.260;2023-05-06T05:32:57;4.90;;;4.30;;
45208;SDS011;30951;43.994;26.260;2023-05-06T05:35:22;5.53;;;3.83;;
45208;SDS011;30951;43.994;26.260;2023-05-06T05:37:48;5.75;;;4.38;;
45208;SDS011;30951;43.994;26.260;2023-05-06T05:40:13;6.68;;;4.30;;
45208;SDS011;30951;43.994;26.260;2023-05-06T05:42:39;6.57;;;3.55;;
45208;SDS011;30951;43.994;26.260;2023-05-06T05:45:05;5.78;;;4.22;;
45208;SDS011;30951;43.994;26.260;2023-05-06T05:47:31;5.78;;;3.95;;
45208;SDS011;30951;43.994;26.260;2023-05-06T05:49:56;4.80;;;3.45;;
45208;SDS011;30951;43.994;26.260;2023-05-06T05:52:22;5.57;;;3.70;;
45208;SDS011;30951;43.994;26.260;2023-05-06T05:54:48;5.05;;;3.88;;
45208;SDS011;30951;43.994;26.260;2023-05-06T05:57:14;4.43;;;3.70;;
45208;SDS011;30951;43.994;26.260;2023-05-06T05:59:39;7.22;;;3.75;;
45208;SDS011;30951;43.994;26.260;2023-05-06T06:02:05;4.72;;;3.50;;
45208;SDS011;30951;43.994;26.260;2023-05-06T06:04:30;4.75;;;4.00;;
45208;SDS011;30951;43.994;26.260;2023-05-06T06:06:56;3.58;;;3.10;;
45208;SDS011;30951;43.994;26.260;2023-05-06T06:09:26;3.40;;;3.10;;
45208;SDS011;30951;43.994;26.260;2023-05-06T06:11:51;5.68;;;3.63;;
45208;SDS011;30951;43.994;26.260;2023-05-06T06:14:17;6.20;;;3.45;;
45208;SDS011;30951;43.994;26.260;2023-05-06T06:16:42;3.97;;;2.90;;
45208;SDS011;30951;43.994;26.260;2023-05-06T06:19:08;5.03;;;3.30;;
45208;SDS011;30951;43.994;26.260;2023-05-06T06:21:33;4.47;;;2.83;;
45208;SDS011;30951;43.994;26.260;2023-05-06T06:23:59;4.82;;;3.45;;
45208;SDS011;30951;43.994;26.260;2023-05-06T06:26:24;3.70;;;2.92;;
45208;SDS011;30951;43.994;26.260;2023-05-06T06:28:50;4.65;;;2.92;;
45208;SDS011;30951;43.994;26.260;2023-05-06T06:31:15;5.15;;;3.55;;
45208;SDS011;30951;43.994;26.260;2023-05-06T06:33:41;4.53;;;3.22;;
45208;SDS011;30951;43.994;26.260;2023-05-06T06:36:06;3.35;;;3.05;;
45208;SDS011;30951;43.994;26.260;2023-05-06T06:38:32;11.00;;;5.05;;
45208;SDS011;30951;43.994;26.260;2023-05-06T06:40:57;3.00;;;2.80;;
45208;SDS011;30951;43.994;26.260;2023-05-06T06:43:23;5.70;;;3.15;;
45208;SDS011;30951;43.994;26.260;2023-05-06T06:45:49;4.20;;;3.22;;
45208;SDS011;30951;43.994;26.260;2023-05-06T06:48:14;4.38;;;3.30;;
45208;SDS011;30951;43.994;26.260;2023-05-06T06:50:40;4.68;;;3.20;;
45208;SDS011;30951;43.994;26.260;2023-05-06T06:53:06;3.33;;;3.00;;
45208;SDS011;30951;43.994;26.260;2023-05-06T06:55:31;7.55;;;3.38;;
45208;SDS011;30951;43.994;26.260;2023-05-06T06:57:57;4.65;;;3.47;;
45208;SDS011;30951;43.994;26.260;2023-05-06T07:00:22;3.88;;;3.33;;
45208;SDS011;30951;43.994;26.260;2023-05-06T07:02:48;3.10;;;2.80;;
45208;SDS011;30951;43.994;26.260;2023-05-06T07:05:14;5.45;;;3.00;;
45208;SDS011;30951;43.994;26.260;2023-05-06T07:07:39;5.38;;;2.90;;
45208;SDS011;30951;43.994;26.260;2023-05-06T07:10:05;11.23;;;5.13;;
45208;SDS011;30951;43.994;26.260;2023-05-06T07:12:31;3.35;;;2.70;;
45208;SDS011;30951;43.994;26.260;2023-05-06T07:14:56;4.65;;;3.38;;
45208;SDS011;30951;43.994;26.260;2023-05-06T07:17:22;4.05;;;2.60;;
45208;SDS011;30951;43.994;26.260;2023-05-06T07:19:47;5.40;;;2.90;;
45208;SDS011;30951;43.994;26.260;2023-05-06T07:22:13;5.63;;;3.28;;
45208;SDS011;30951;43.994;26.260;2023-05-06T07:24:38;2.67;;;2.47;;
45208;SDS011;30951;43.994;26.260;2023-05-06T07:27:04;4.13;;;2.85;;
45208;SDS011;30951;43.994;26.260;2023-05-06T07:29:29;6.53;;;3.33;;
45208;SDS011;30951;43.994;26.260;2023-05-06T07:31:55;6.20;;;3.25;;
45208;SDS011;30951;43.994;26.260;2023-05-06T07:34:21;5.53;;;2.88;;
45208;SDS011;30951;43.994;26.260;2023-05-06T07:36:46;4.13;;;2.97;;
45208;SDS011;30951;43.994;26.260;2023-05-06T07:39:12;3.05;;;2.35;;
45208;SDS011;30951;43.994;26.260;2023-05-06T07:41:38;4.10;;;2.58;;
45208;SDS011;30951;43.994;26.260;2023-05-06T07:44:03;4.10;;;2.10;;
45208;SDS011;30951;43.994;26.260;2023-05-06T07:46:29;4.32;;;2.58;;
45208;SDS011;30951;43.994;26.260;2023-05-06T07:48:55;4.55;;;2.30;;
45208;SDS011;30951;43.994;26.260;2023-05-06T07:51:20;6.03;;;2.25;;
45208;SDS011;30951;43.994;26.260;2023-05-06T07:53:46;3.30;;;2.45;;
45208;SDS011;30951;43.994;26.260;2023-05-06T07:56:12;4.95;;;2.33;;
45208;SDS011;30951;43.994;26.260;2023-05-06T07:58:38;3.38;;;2.30;;
45208;SDS011;30951;43.994;26.260;2023-05-06T08:01:03;3.35;;;2.22;;
45208;SDS011;30951;43.994;26.260;2023-05-06T08:03:30;6.45;;;3.95;;
45208;SDS011;30951;43.994;26.260;2023-05-06T08:05:56;2.38;;;2.17;;
45208;SDS011;30951;43.994;26.260;2023-05-06T08:08:22;2.50;;;2.00;;
45208;SDS011;30951;43.994;26.260;2023-05-06T08:10:47;2.42;;;2.20;;
45208;SDS011;30951;43.994;26.260;2023-05-06T08:13:13;3.90;;;2.53;;
45208;SDS011;30951;43.994;26.260;2023-05-06T08:15:39;2.17;;;1.75;;
45208;SDS011;30951;43.994;26.260;2023-05-06T08:18:04;3.75;;;1.80;;
45208;SDS011;30951;43.994;26.260;2023-05-06T08:20:30;2.83;;;2.47;;
45208;SDS011;30951;43.994;26.260;2023-05-06T08:22:55;2.35;;;1.83;;
45208;SDS011;30951;43.994;26.260;2023-05-06T08:25:21;2.85;;;2.05;;
45208;SDS011;30951;43.994;26.260;2023-05-06T08:27:47;5.47;;;2.65;;
45208;SDS011;30951;43.994;26.260;2023-05-06T08:30:12;2.35;;;1.90;;
45208;SDS011;30951;43.994;26.260;2023-05-06T08:32:38;2.72;;;2.15;;
45208;SDS011;30951;43.994;26.260;2023-05-06T08:35:06;4.55;;;1.77;;
45208;SDS011;30951;43.994;26.260;2023-05-06T08:37:32;3.38;;;1.95;;
45208;SDS011;30951;43.994;26.260;2023-05-06T08:39:58;5.90;;;2.33;;
45208;SDS011;30951;43.994;26.260;2023-05-06T08:42:23;2.70;;;1.88;;
45208;SDS011;30951;43.994;26.260;2023-05-06T08:44:52;3.47;;;1.92;;
45208;SDS011;30951;43.994;26.260;2023-05-06T08:47:19;3.27;;;2.17;;
45208;SDS011;30951;43.994;26.260;2023-05-06T08:49:45;3.78;;;2.00;;
45208;SDS011;30951;43.994;26.260;2023-05-06T08:52:12;4.38;;;2.35;;
45208;SDS011;30951;43.994;26.260;2023-05-06T08:54:37;1.98;;;1.77;;
45208;SDS011;30951;43.994;26.260;2023-05-06T08:57:04;8.25;;;2.10;;
45208;SDS011;30951;43.994;26.260;2023-05-06T08:59:32;2.28;;;1.58;;
45208;SDS011;30951;43.994;26.260;2023-05-06T09:01:59;3.30;;;2.10;;
45208;SDS011;30951;43.994;26.260;2023-05-06T09:04:26;4.63;;;1.92;;
45208;SDS011;30951;43.994;26.260;2023-05-06T09:06:51;1.80;;;1.70;;
45208;SDS011;30951;43.994;26.260;2023-05-06T09:09:16;2.08;;;1.27;;
45208;SDS011;30951;43.994;26.260;2023-05-06T09:11:42;3.42;;;2.08;;
45208;SDS011;30951;43.994;26.260;2023-05-06T09:14:11;2.03;;;1.60;;
45208;SDS011;30951;43.994;26.260;2023-05-06T09:16:41;1.65;;;1.50;;
45208;SDS011;30951;43.994;26.260;2023-05-06T09:19:08;2.85;;;2.08;;
45208;SDS011;30951;43.994;26.260;2023-05-06T09:24:04;1.75;;;1.45;;
45208;SDS011;30951;43.994;26.260;2023-05-06T09:26:31;2.17;;;1.98;;
45208;SDS011;30951;43.994;26.260;2023-05-06T09:28:57;1.95;;;1.77;;
45208;SDS011;30951;43.994;26.260;2023-05-06T09:31:23;3.10;;;1.58;;
45208;SDS011;30951;43.994;26.260;2023-05-06T09:33:50;2.35;;;1.65;;
45208;SDS011;30951;43.994;26.260;2023-05-06T09:36:16;1.75;;;1.65;;
45208;SDS011;30951;43.994;26.260;2023-05-06T09:38:41;2.35;;;1.67;;
45208;SDS011;30951;43.994;26.260;2023-05-06T09:41:07;4.40;;;1.90;;
45208;SDS011;30951;43.994;26.260;2023-05-06T09:43:33;2.80;;;1.70;;
45208;SDS011;30951;43.994;26.260;2023-05-06T09:46:01;4.28;;;2.28;;
45208;SDS011;30951;43.994;26.260;2023-05-06T09:48:30;1.50;;;1.38;;
45208;SDS011;30951;43.994;26.260;2023-05-06T09:50:56;4.50;;;2.35;;
45208;SDS011;30951;43.994;26.260;2023-05-06T09:53:25;1.77;;;1.58;;
45208;SDS011;30951;43.994;26.260;2023-05-06T09:55:51;2.20;;;1.65;;
45208;SDS011;30951;43.994;26.260;2023-05-06T09:58:17;2.22;;;1.80;;
45208;SDS011;30951;43.994;26.260;2023-05-06T10:00:44;2.35;;;1.80;;
45208;SDS011;30951;43.994;26.260;2023-05-06T10:03:11;1.55;;;1.45;;
45208;SDS011;30951;43.994;26.260;2023-05-06T10:05:38;2.85;;;1.63;;
45208;SDS011;30951;43.994;26.260;2023-05-06T10:08:03;2.10;;;1.80;;
45208;SDS011;30951;43.994;26.260;2023-05-06T10:10:29;1.55;;;1.23;;
45208;SDS011;30951;43.994;26.260;2023-05-06T10:12:55;2.38;;;1.73;;
45208;SDS011;30951;43.994;26.260;2023-05-06T10:15:21;2.83;;;1.60;;
45208;SDS011;30951;43.994;26.260;2023-05-06T10:17:47;2.95;;;1.40;;
45208;SDS011;30951;43.994;26.260;2023-05-06T10:20:14;1.85;;;1.65;;
45208;SDS011;30951;43.994;26.260;2023-05-06T10:22:46;4.22;;;1.92;;
45208;SDS011;30951;43.994;26.260;2023-05-06T10:27:58;3.67;;;1.73;;
45208;SDS011;30951;43.994;26.260;2023-05-06T10:30:25;1.45;;;1.35;;
45208;SDS011;30951;43.994;26.260;2023-05-06T10:32:51;1.80;;;1.42;;
45208;SDS011;30951;43.994;26.260;2023-05-06T10:35:19;1.60;;;1.42;;
45208;SDS011;30951;43.994;26.260;2023-05-06T10:37:48;2.25;;;1.40;;
45208;SDS011;30951;43.994;26.260;2023-05-06T10:40:15;1.38;;;1.27;;
45208;SDS011;30951;43.994;26.260;2023-05-06T10:42:40;5.65;;;1.85;;
45208;SDS011;30951;43.994;26.260;2023-05-06T10:45:06;1.48;;;1.27;;
45208;SDS011;30951;43.994;26.260;2023-05-06T10:52:51;3.15;;;1.90;;
45208;SDS011;30951;43.994;26.260;2023-05-06T10:55:29;5.85;;;2.55;;
45208;SDS011;30951;43.994;26.260;2023-05-06T10:57:59;3.72;;;1.50;;
45208;SDS011;30951;43.994;26.260;2023-05-06T11:00:30;2.83;;;1.60;;
45208;SDS011;30951;43.994;26.260;2023-05-06T11:02:59;2.83;;;1.80;;
45208;SDS011;30951;43.994;26.260;2023-05-06T11:05:26;1.83;;;1.40;;
45208;SDS011;30951;43.994;26.260;2023-05-06T11:07:51;1.42;;;1.27;;
45208;SDS011;30951;43.994;26.260;2023-05-06T11:10:32;1.35;;;1.20;;
45208;SDS011;30951;43.994;26.260;2023-05-06T11:12:58;1.55;;;1.40;;
45208;SDS011;30951;43.994;26.260;2023-05-06T11:15:43;1.42;;;1.33;;
45208;SDS011;30951;43.994;26.260;2023-05-06T11:26:09;3.00;;;1.00;;
45208;SDS011;30951;43.994;26.260;2023-05-06T11:28:36;1.65;;;1.10;;
45208;SDS011;30951;43.994;26.260;2023-05-06T11:31:02;1.85;;;1.40;;
45208;SDS011;30951;43.994;26.260;2023-05-06T11:33:31;2.13;;;1.52;;
45208;SDS011;30951;43.994;26.260;2023-05-06T11:35:58;1.48;;;1.13;;
45208;SDS011;30951;43.994;26.260;2023-05-06T11:41:09;1.83;;;1.05;;
45208;SDS011;30951;43.994;26.260;2023-05-06T11:43:35;1.83;;;1.35;;
45208;SDS011;30951;43.994;26.260;2023-05-06T11:46:01;2.85;;;1.63;;
45208;SDS011;30951;43.994;26.260;2023-05-06T11:48:26;4.80;;;1.65;;
45208;SDS011;30951;43.994;26.260;2023-05-06T11:50:52;1.63;;;1.15;;
45208;SDS011;30951;43.994;26.260;2023-05-06T11:53:19;6.80;;;1.50;;
45208;SDS011;30951;43.994;26.260;2023-05-06T11:55:45;2.30;;;1.00;;
45208;SDS011;30951;43.994;26.260;2023-05-06T11:58:14;2.45;;;1.15;;
45208;SDS011;30951;43.994;26.260;2023-05-06T12:00:47;2.83;;;1.80;;
45208;SDS011;30951;43.994;26.260;2023-05-06T12:03:15;1.70;;;1.30;;
45208;SDS011;30951;43.994;26.260;2023-05-06T12:05:42;2.10;;;1.40;;
45208;SDS011;30951;43.994;26.260;2023-05-06T12:08:08;2.58;;;1.23;;
45208;SDS011;30951;43.994;26.260;2023-05-06T12:10:35;1.83;;;1.60;;
45208;SDS011;30951;43.994;26.260;2023-05-06T12:13:01;3.40;;;1.52;;
45208;SDS011;30951;43.994;26.260;2023-05-06T12:15:26;1.70;;;1.38;;
45208;SDS011;30951;43.994;26.260;2023-05-06T12:17:52;2.38;;;1.38;;
45208;SDS011;30951;43.994;26.260;2023-05-06T12:20:17;3.28;;;1.58;;
45208;SDS011;30951;43.994;26.260;2023-05-06T12:22:43;3.78;;;1.60;;
45208;SDS011;30951;43.994;26.260;2023-05-06T12:25:12;4.57;;;1.83;;
45208;SDS011;30951;43.994;26.260;2023-05-06T12:27:38;5.38;;;1.60;;
45208;SDS011;30951;43.994;26.260;2023-05-06T12:30:04;2.13;;;1.58;;
45208;SDS011;30951;43.994;26.260;2023-05-06T12:32:33;3.00;;;1.20;;
45208;SDS011;30951;43.994;26.260;2023-05-06T12:34:58;3.40;;;1.40;;
45208;SDS011;30951;43.994;26.260;2023-05-06T12:37:29;4.25;;;1.48;;
45208;SDS011;30951;43.994;26.260;2023-05-06T12:39:55;1.38;;;1.27;;
45208;SDS011;30951;43.994;26.260;2023-05-06T12:42:21;1.27;;;1.10;;
45208;SDS011;30951;43.994;26.260;2023-05-06T12:44:47;2.78;;;1.70;;
45208;SDS011;30951;43.994;26.260;2023-05-06T12:47:23;4.05;;;1.33;;
45208;SDS011;30951;43.994;26.260;2023-05-06T12:49:53;2.38;;;1.30;;
45208;SDS011;30951;43.994;26.260;2023-05-06T12:52:20;1.65;;;1.30;;
45208;SDS011;30951;43.994;26.260;2023-05-06T12:54:47;3.67;;;1.20;;
45208;SDS011;30951;43.994;26.260;2023-05-06T12:57:12;2.25;;;1.38;;
45208;SDS011;30951;43.994;26.260;2023-05-06T12:59:38;1.30;;;1.20;;
45208;SDS011;30951;43.994;26.260;2023-05-06T13:02:04;1.33;;;1.23;;
45208;SDS011;30951;43.994;26.260;2023-05-06T13:04:30;2.30;;;1.30;;
45208;SDS011;30951;43.994;26.260;2023-05-06T13:06:56;1.80;;;1.20;;
45208;SDS011;30951;43.994;26.260;2023-05-06T13:09:22;1.50;;;1.40;;
45208;SDS011;30951;43.994;26.260;2023-05-06T13:11:48;2.35;;;1.40;;
45208;SDS011;30951;43.994;26.260;2023-05-06T13:14:14;1.42;;;1.33;;
45208;SDS011;30951;43.994;26.260;2023-05-06T13:16:40;1.63;;;1.33;;
45208;SDS011;30951;43.994;26.260;2023-05-06T13:19:06;3.13;;;1.65;;
45208;SDS011;30951;43.994;26.260;2023-05-06T13:21:32;3.47;;;1.33;;
45208;SDS011;30951;43.994;26.260;2023-05-06T13:23:58;3.75;;;1.70;;
45208;SDS011;30951;43.994;26.260;2023-05-06T13:26:23;1.92;;;1.55;;
45208;SDS011;30951;43.994;26.260;2023-05-06T13:28:49;2.90;;;1.35;;
45208;SDS011;30951;43.994;26.260;2023-05-06T13:31:15;2.25;;;1.20;;
45208;SDS011;30951;43.994;26.260;2023-05-06T13:33:40;1.73;;;1.10;;
45208;SDS011;30951;43.994;26.260;2023-05-06T13:36:06;5.43;;;1.42;;
45208;SDS011;30951;43.994;26.260;2023-05-06T13:38:31;2.08;;;1.20;;
45208;SDS011;30951;43.994;26.260;2023-05-06T13:40:57;2.40;;;1.30;;
45208;SDS011;30951;43.994;26.260;2023-05-06T13:43:23;1.30;;;1.10;;
45208;SDS011;30951;43.994;26.260;2023-05-06T13:45:51;5.00;;;1.35;;
45208;SDS011;30951;43.994;26.260;2023-05-06T13:48:17;1.25;;;1.15;;
45208;SDS011;30951;43.994;26.260;2023-05-06T13:50:45;1.48;;;1.10;;
45208;SDS011;30951;43.994;26.260;2023-05-06T13:53:11;1.80;;;1.13;;
45208;SDS011;30951;43.994;26.260;2023-05-06T13:55:37;1.35;;;1.02;;
45208;SDS011;30951;43.994;26.260;2023-05-06T13:58:04;1.55;;;1.40;;
45208;SDS011;30951;43.994;26.260;2023-05-06T14:00:30;1.13;;;1.00;;
45208;SDS011;30951;43.994;26.260;2023-05-06T14:02:55;2.08;;;1.17;;
45208;SDS011;30951;43.994;26.260;2023-05-06T14:05:21;1.52;;;1.20;;
45208;SDS011;30951;43.994;26.260;2023-05-06T14:07:46;1.55;;;1.45;;
45208;SDS011;30951;43.994;26.260;2023-05-06T14:10:12;3.00;;;1.10;;
45208;SDS011;30951;43.994;26.260;2023-05-06T14:12:38;1.83;;;1.20;;
45208;SDS011;30951;43.994;26.260;2023-05-06T14:15:07;5.63;;;1.10;;
45208;SDS011;30951;43.994;26.260;2023-05-06T14:17:33;4.72;;;1.30;;
45208;SDS011;30951;43.994;26.260;2023-05-06T14:19:59;1.50;;;1.13;;
45208;SDS011;30951;43.994;26.260;2023-05-06T14:22:26;0.88;;;0.88;;
45208;SDS011;30951;43.994;26.260;2023-05-06T14:24:52;1.63;;;1.20;;
45208;SDS011;30951;43.994;26.260;2023-05-06T14:27:18;2.00;;;1.23;;
45208;SDS011;30951;43.994;26.260;2023-05-06T14:29:44;1.13;;;1.00;;
45208;SDS011;30951;43.994;26.260;2023-05-06T14:32:13;1.65;;;1.05;;
45208;SDS011;30951;43.994;26.260;2023-05-06T14:34:38;5.25;;;1.00;;
45208;SDS011;30951;43.994;26.260;2023-05-06T14:37:04;1.48;;;1.10;;
45208;SDS011;30951;43.994;26.260;2023-05-06T14:39:30;1.30;;;1.20;;
45208;SDS011;30951;43.994;26.260;2023-05-06T14:41:55;3.70;;;0.90;;
45208;SDS011;30951;43.994;26.260;2023-05-06T14:44:21;0.98;;;0.90;;
45208;SDS011;30951;43.994;26.260;2023-05-06T14:46:46;1.65;;;0.90;;
45208;SDS011;30951;43.994;26.260;2023-05-06T14:49:12;2.38;;;1.08;;